createdAt,value
2019-01-27T00:01:32.333Z,98941.63
2019-01-27T00:05:37.513Z,98946.24
2019-01-27T00:09:42.393Z,98932.59
2019-01-27T00:13:47.614Z,98927.73
2019-01-27T00:17:52.481Z,98918.09
2019-01-27T00:21:57.385Z,98913.13
2019-01-27T00:26:02.269Z,98901.25
2019-01-27T00:30:14.082Z,98889.69
2019-01-27T00:34:19.031Z,98894.43
2019-01-27T00:38:23.925Z,98873.30
2019-01-27T00:42:28.904Z,98864.27
2019-01-27T00:46:33.803Z,98854.59
2019-01-27T00:50:38.794Z,98841.50
2019-01-27T00:54:43.668Z,98828.51
2019-01-27T00:58:48.538Z,98828.77
2019-01-27T01:02:53.424Z,98820.27
2019-01-27T01:06:58.326Z,98819.20
2019-01-27T01:11:03.200Z,98805.42
2019-01-27T01:15:10.002Z,98800.10
2019-01-27T01:19:14.897Z,98792.25
2019-01-27T01:23:19.820Z,98779.44
2019-01-27T01:27:24.695Z,98781.09
2019-01-27T01:31:29.744Z,98764.06
2019-01-27T01:35:34.618Z,98750.60
2019-01-27T01:39:39.501Z,98740.52
2019-01-27T01:43:44.407Z,98736.64
2019-01-27T01:47:49.305Z,98732.64
2019-01-27T01:51:54.225Z,98730.52
2019-01-27T01:55:59.087Z,98715.58
2019-01-27T02:00:04.135Z,98701.58
2019-01-27T02:04:09.057Z,98696.97
2019-01-27T02:08:13.955Z,98700.38
2019-01-27T02:12:19.149Z,98686.53
2019-01-27T02:16:24.055Z,98676.78
2019-01-27T02:20:29.035Z,98666.72
2019-01-27T02:24:33.983Z,98648.72
2019-01-27T02:28:38.832Z,98650.03
2019-01-27T02:32:43.724Z,98636.34
2019-01-27T02:36:48.618Z,98626.70
2019-01-27T02:40:53.554Z,98620.30
2019-01-27T02:44:58.449Z,98612.70
2019-01-27T02:49:03.317Z,98601.86
2019-01-27T02:53:08.264Z,98600.39
2019-01-27T02:57:13.480Z,98592.50
2019-01-27T03:01:18.385Z,98588.46
2019-01-27T03:05:47.528Z,98573.76
2019-01-27T03:09:52.422Z,98574.84
2019-01-27T03:13:57.305Z,98562.72
2019-01-27T03:18:02.208Z,98562.63
2019-01-27T03:22:07.088Z,98541.19
2019-01-27T03:26:12.158Z,98542.04
2019-01-27T03:30:18.705Z,98537.33
2019-01-27T03:34:23.814Z,98528.06
2019-01-27T03:38:28.706Z,98517.95
2019-01-27T03:42:33.583Z,98503.98
2019-01-27T03:46:38.579Z,98498.02
2019-01-27T03:50:44.149Z,98490.33
2019-01-27T03:54:49.003Z,98477.13
2019-01-27T03:58:53.899Z,98469.75
2019-01-27T04:02:58.765Z,98464.75
2019-01-27T04:07:03.763Z,98456.06
2019-01-27T04:11:08.644Z,98449.45
2019-01-27T04:15:14.196Z,98437.53
2019-01-27T04:19:19.058Z,98425.21
2019-01-27T04:23:24.023Z,98413.04
2019-01-27T04:27:28.893Z,98407.63
2019-01-27T04:31:33.895Z,98409.35
2019-01-27T04:35:38.790Z,98399.09
2019-01-27T04:39:43.702Z,98396.26
2019-01-27T04:43:48.583Z,98385.34
2019-01-27T04:47:53.479Z,98381.14
2019-01-27T04:51:58.397Z,98370.89
2019-01-27T04:56:03.274Z,98373.45
2019-01-27T05:00:12.881Z,98370.06
2019-01-27T05:04:32.281Z,98366.42
2019-01-27T05:08:37.173Z,98363.31
2019-01-27T05:12:42.143Z,98351.05
2019-01-27T05:16:47.034Z,98352.36
2019-01-27T05:20:51.924Z,98336.81
2019-01-27T05:24:56.821Z,98333.34
2019-01-27T05:29:01.996Z,98333.21
2019-01-27T05:33:06.884Z,98322.71
2019-01-27T05:37:12.076Z,98314.34
2019-01-27T05:41:16.966Z,98305.89
2019-01-27T05:45:23.504Z,98301.05
2019-01-27T05:49:28.416Z,98304.06
2019-01-27T05:53:33.585Z,98300.47
2019-01-27T05:57:38.477Z,98293.55
2019-01-27T06:01:43.383Z,98299.34
2019-01-27T06:05:48.268Z,98294.86
2019-01-27T06:09:53.157Z,98282.91
2019-01-27T06:13:58.131Z,98274.17
2019-01-27T06:18:03.103Z,98274.02
2019-01-27T06:22:08.016Z,98270.02
2019-01-27T06:26:12.991Z,98270.87
2019-01-27T06:30:21.296Z,98255.59
2019-01-27T06:34:26.248Z,98264.08
2019-01-27T06:38:31.116Z,98239.34
2019-01-27T06:46:41.361Z,98227.76
2019-01-27T06:50:46.305Z,98220.81
2019-01-27T06:54:51.172Z,98217.36
2019-01-27T06:59:24.115Z,98222.10
2019-01-27T07:03:35.548Z,98216.69
2019-01-27T07:07:58.213Z,98216.64
2019-01-27T07:12:22.000Z,98210.27
2019-01-27T07:16:44.415Z,98209.59
2019-01-27T07:20:55.220Z,98214.16
2019-01-27T07:25:37.686Z,98209.05
2019-01-27T07:30:12.231Z,98208.04
2019-01-27T07:34:42.715Z,98209.59
2019-01-27T07:39:04.252Z,98211.16
2019-01-27T07:43:31.181Z,98199.57
2019-01-27T07:47:42.818Z,98196.19
2019-01-27T07:52:09.706Z,98191.59
2019-01-27T07:56:32.382Z,98196.92
2019-01-27T08:00:56.601Z,98184.30
2019-01-27T08:05:26.578Z,98187.11
2019-01-27T08:09:38.328Z,98188.53
2019-01-27T08:14:17.468Z,98176.80
2019-01-27T08:18:47.757Z,98180.91
2019-01-27T08:23:09.982Z,98179.98
2019-01-27T08:27:33.810Z,98170.82
2019-01-27T08:31:51.808Z,98168.33
2019-01-27T08:36:19.003Z,98166.22
2019-01-27T08:40:48.865Z,98163.10
2019-01-27T08:45:15.965Z,98155.55
2019-01-27T08:49:20.904Z,98154.54
2019-01-27T08:53:25.804Z,98158.48
2019-01-27T08:57:30.759Z,98155.81
2019-01-27T09:01:53.705Z,98155.03
2019-01-27T09:06:16.153Z,98151.70
2019-01-27T09:10:33.911Z,98154.77
2019-01-27T09:15:00.990Z,98148.39
2019-01-27T09:19:15.370Z,98147.80
2019-01-27T09:23:41.994Z,98144.85
2019-01-27T09:27:57.002Z,98143.97
2019-01-27T09:32:23.587Z,98149.76
2019-01-27T09:37:02.488Z,98148.68
2019-01-27T09:41:38.420Z,98136.59
2019-01-27T09:46:05.222Z,98132.34
2019-01-27T09:50:15.987Z,98135.28
2019-01-27T09:54:39.899Z,98131.55
2019-01-27T09:59:16.112Z,98135.04
2019-01-27T10:03:45.980Z,98135.35
2019-01-27T10:08:21.865Z,98130.04
2019-01-27T10:12:54.750Z,98121.64
2019-01-27T10:17:17.305Z,98133.97
2019-01-27T10:21:46.680Z,98137.45
2019-01-27T10:25:58.803Z,98133.42
2019-01-27T10:30:26.739Z,98129.24
2019-01-27T10:34:37.780Z,98124.66
2019-01-27T10:38:51.614Z,98116.44
2019-01-27T10:43:21.422Z,98110.92
2019-01-27T10:47:48.427Z,98106.41
2019-01-27T10:52:12.520Z,98101.03
2019-01-27T10:56:45.484Z,98103.70
2019-01-27T11:00:58.943Z,98098.88
2019-01-27T11:05:35.241Z,98105.21
2019-01-27T11:09:57.816Z,98100.48
2019-01-27T11:14:27.818Z,98098.13
2019-01-27T11:18:52.094Z,98101.75
2019-01-27T11:23:17.742Z,98089.80
2019-01-27T11:27:33.094Z,98099.61
2019-01-27T11:31:43.831Z,98081.78
2019-01-27T11:36:06.596Z,98084.14
2019-01-27T11:40:29.570Z,98075.99
2019-01-27T11:44:56.401Z,98081.63
2019-01-27T11:49:20.294Z,98068.19
2019-01-27T11:53:25.348Z,98065.30
2019-01-27T11:57:30.318Z,98051.73
2019-01-27T12:01:35.234Z,98052.69
2019-01-27T12:05:40.185Z,98050.50
2019-01-27T12:09:45.408Z,98054.45
2019-01-27T12:13:50.388Z,98055.23
2019-01-27T12:17:55.346Z,98052.86
2019-01-27T12:22:00.281Z,98042.14
2019-01-27T12:26:05.585Z,98033.93
2019-01-27T12:30:15.130Z,98034.08
2019-01-27T12:34:20.165Z,98033.45
2019-01-27T12:38:25.064Z,98026.69
2019-01-27T12:42:30.396Z,98025.98
2019-01-27T12:46:35.348Z,98026.61
2019-01-27T12:50:40.253Z,98030.58
2019-01-27T12:54:45.389Z,98028.36
2019-01-27T12:58:50.306Z,98031.13
2019-01-27T13:02:55.192Z,98025.14
2019-01-27T13:07:00.067Z,98034.66
2019-01-27T13:11:05.849Z,98028.36
2019-01-27T13:15:13.085Z,98032.47
2019-01-27T13:19:18.329Z,98030.31
2019-01-27T13:23:23.194Z,98029.18
2019-01-27T13:27:28.159Z,98027.91
2019-01-27T13:31:33.097Z,98035.89
2019-01-27T13:35:38.933Z,98031.41
2019-01-27T13:39:44.034Z,98031.47
2019-01-27T13:43:49.024Z,98034.58
2019-01-27T13:47:58.938Z,98042.45
2019-01-27T13:52:00.776Z,98044.77
2019-01-27T13:56:05.691Z,98038.86
2019-01-27T14:00:15.846Z,98041.25
2019-01-27T14:04:20.817Z,98036.36
2019-01-27T14:08:27.179Z,98039.57
2019-01-27T14:12:32.614Z,98042.72
2019-01-27T14:16:37.510Z,98041.90
2019-01-27T14:20:42.458Z,98042.92
2019-01-27T14:24:47.366Z,98043.56
2019-01-27T14:28:52.357Z,98050.11
2019-01-27T14:32:57.262Z,98059.93
2019-01-27T14:37:02.658Z,98070.95
2019-01-27T14:41:07.815Z,98087.56
2019-01-27T14:45:16.768Z,98083.88
2019-01-27T14:49:21.746Z,98099.19
2019-01-27T14:53:27.140Z,98105.13
2019-01-27T14:57:32.499Z,98103.63
2019-01-27T15:01:37.534Z,98119.80
2019-01-27T15:05:42.533Z,98121.67
2019-01-27T15:09:47.457Z,98138.63
2019-01-27T15:13:52.337Z,98149.48
2019-01-27T15:17:57.267Z,98164.72
2019-01-27T15:22:02.174Z,98164.03
2019-01-27T15:26:07.077Z,98182.41
2019-01-27T15:30:19.771Z,98189.47
2019-01-27T15:34:24.769Z,98201.06
2019-01-27T15:38:29.759Z,98208.05
2019-01-27T15:42:34.646Z,98219.41
2019-01-27T15:46:39.620Z,98233.89
2019-01-27T15:50:44.585Z,98241.92
2019-01-27T15:54:49.519Z,98245.73
2019-01-27T15:58:55.148Z,98253.07
2019-01-27T16:03:00.586Z,98260.72
2019-01-27T16:07:05.763Z,98273.00
2019-01-27T16:11:10.718Z,98286.55
2019-01-27T16:15:21.818Z,98294.80
2019-01-27T16:19:27.122Z,98305.72
2019-01-27T16:23:47.291Z,98318.98
2019-01-27T16:27:52.209Z,98320.50
2019-01-27T16:32:07.898Z,98331.70
2019-01-27T16:36:12.803Z,98342.41
2019-01-27T16:40:17.697Z,98351.95
2019-01-27T16:44:22.618Z,98349.27
2019-01-27T16:48:27.581Z,98359.14
2019-01-27T16:52:32.488Z,98359.91
2019-01-27T16:56:37.415Z,98371.36
2019-01-27T17:00:42.388Z,98377.14
2019-01-27T17:04:47.321Z,98385.62
2019-01-27T17:08:52.267Z,98393.55
2019-01-27T17:12:57.187Z,98394.38
2019-01-27T17:17:02.136Z,98401.64
2019-01-27T17:21:07.140Z,98401.75
2019-01-27T17:25:12.461Z,98405.55
2019-01-27T17:29:17.440Z,98407.77
2019-01-27T17:33:22.344Z,98411.25
2019-01-27T17:37:27.249Z,98423.09
2019-01-27T17:41:32.130Z,98431.42
2019-01-27T17:45:37.040Z,98439.78
2019-01-27T17:49:42.195Z,98438.31
2019-01-27T17:53:56.812Z,98444.49
2019-01-27T17:58:33.710Z,98453.32
2019-01-27T18:03:00.498Z,98461.74
2019-01-27T18:07:39.794Z,98477.89
2019-01-27T18:11:59.901Z,98471.72
2019-01-27T18:16:06.846Z,98487.64
2019-01-27T18:20:14.133Z,98486.63
2019-01-27T18:24:20.889Z,98503.96
2019-01-27T18:28:25.958Z,98516.66
2019-01-27T18:32:30.963Z,98519.39
2019-01-27T18:36:36.146Z,98500.61
2019-01-27T18:40:41.344Z,98510.90
2019-01-27T18:44:46.261Z,98519.70
2019-01-27T18:48:51.243Z,98520.45
2019-01-27T18:53:15.743Z,98523.80
2019-01-27T18:57:42.581Z,98532.38
2019-01-27T19:02:02.911Z,98525.36
2019-01-27T19:06:36.012Z,98525.98
2019-01-27T19:10:58.977Z,98527.64
2019-01-27T19:15:28.919Z,98525.86
2019-01-27T19:20:01.531Z,98527.55
2019-01-27T19:24:18.474Z,98541.59
2019-01-27T19:28:35.063Z,98545.17
2019-01-27T19:32:53.314Z,98550.09
2019-01-27T19:37:11.366Z,98549.77
2019-01-27T19:41:24.550Z,98554.59
2019-01-27T19:45:46.353Z,98555.73
2019-01-27T19:50:01.840Z,98557.52
2019-01-27T19:54:36.309Z,98560.43
2019-01-27T19:58:54.621Z,98566.88
2019-01-27T20:03:19.326Z,98568.45
2019-01-27T20:07:33.066Z,98577.04
2019-01-27T20:11:56.019Z,98586.38
2019-01-27T20:16:15.939Z,98585.34
2019-01-27T20:20:36.395Z,98589.23
2019-01-27T20:25:01.766Z,98593.20
2019-01-27T20:29:31.819Z,98586.59
2019-01-27T20:34:04.474Z,98597.13
2019-01-27T20:38:31.974Z,98591.53
2019-01-27T20:42:56.490Z,98589.44
2019-01-27T20:47:07.969Z,98578.55
2019-01-27T20:51:43.892Z,98593.17
2019-01-27T20:56:13.644Z,98580.28
2019-01-27T21:00:31.897Z,98579.69
2019-01-27T21:05:05.135Z,98581.86
2019-01-27T21:09:33.464Z,98579.23
2019-01-27T21:13:57.323Z,98580.72
2019-01-27T21:18:17.587Z,98579.44
2019-01-27T21:22:22.466Z,98587.71
2019-01-27T21:26:27.722Z,98582.16
2019-01-27T21:30:32.596Z,98573.77
2019-01-27T21:34:37.506Z,98572.20
2019-01-27T21:38:42.416Z,98574.52
2019-01-27T21:42:47.887Z,98571.50
2019-01-27T21:46:52.889Z,98567.29
2019-01-27T21:50:58.182Z,98563.20
2019-01-27T21:55:03.319Z,98567.62
2019-01-27T21:59:08.198Z,98567.41
2019-01-27T22:03:13.119Z,98557.45
2019-01-27T22:07:18.012Z,98565.11
2019-01-27T22:11:23.228Z,98553.56
2019-01-27T22:15:28.148Z,98558.20
2019-01-27T22:19:33.354Z,98568.80
2019-01-27T22:23:38.247Z,98554.33
2019-01-27T22:27:43.218Z,98553.09
2019-01-27T22:31:48.085Z,98554.25
2019-01-27T22:35:53.351Z,98562.63
2019-01-27T22:39:58.237Z,98549.13
2019-01-27T22:44:03.133Z,98550.38
2019-01-27T22:48:08.003Z,98546.91
2019-01-27T22:52:12.912Z,98550.50
2019-01-27T22:56:17.814Z,98547.37
2019-01-27T23:01:03.280Z,98553.43
2019-01-27T23:05:09.799Z,98541.47
2019-01-27T23:09:19.199Z,98549.34
2019-01-27T23:13:24.711Z,98552.81
2019-01-27T23:17:29.612Z,98537.30
2019-01-27T23:21:34.523Z,98538.23
2019-01-27T23:25:39.583Z,98537.91
2019-01-27T23:29:44.491Z,98543.03
2019-01-27T23:33:49.363Z,98538.32
2019-01-27T23:37:54.662Z,98542.20
2019-01-27T23:41:59.839Z,98542.53
2019-01-27T23:46:04.843Z,98537.70
2019-01-27T23:50:10.125Z,98544.19
2019-01-27T23:54:15.132Z,98535.80
2019-01-27T23:58:20.024Z,98528.70
